Aviation Digital Data Service (ADDS)

Output produced by TAFs form (0943 UTC 02 April 2015)
found at http://aviationweather.gov/adds/tafs/
 
KAEG 020541Z 0206/0306 25012G18KT P6SM FEW120 SCT200 
     FM021200 21008KT P6SM SKC 
     FM021600 24015G22KT P6SM FEW090 
     FM022000 26025G40KT P6SM FEW090